createdAt,value
2022-10-17T00:01:47.495Z,8.00
2022-10-17T00:04:18.100Z,7.40
2022-10-17T00:06:47.887Z,9.68
2022-10-17T00:09:18.856Z,9.57
2022-10-17T00:11:50.738Z,7.57
2022-10-17T00:14:19.582Z,5.88
2022-10-17T00:16:50.008Z,8.43
2022-10-17T00:19:19.902Z,11.15
2022-10-17T00:21:51.001Z,5.05
2022-10-17T00:24:20.170Z,7.38
2022-10-17T00:26:51.777Z,6.70
2022-10-17T00:29:21.561Z,8.43
2022-10-17T00:34:24.693Z,7.38
2022-10-17T00:36:54.803Z,9.23
2022-10-17T00:39:26.180Z,7.55
2022-10-17T00:41:58.130Z,5.47
2022-10-17T00:44:54.779Z,6.20
2022-10-17T00:47:28.660Z,7.35
2022-10-17T00:49:59.649Z,4.80
2022-10-17T00:52:32.849Z,7.63
2022-10-17T00:55:17.658Z,5.53
2022-10-17T00:57:49.638Z,3.40
2022-10-17T01:00:20.458Z,2.65
2022-10-17T01:02:50.202Z,4.45
2022-10-17T01:05:20.424Z,5.95
2022-10-17T01:07:51.005Z,3.35
2022-10-17T01:13:11.283Z,4.38
2022-10-17T01:16:22.064Z,5.03
2022-10-17T01:19:28.846Z,4.53
2022-10-17T01:22:01.057Z,4.55
2022-10-17T01:24:50.275Z,7.05
2022-10-17T01:27:57.160Z,6.25
2022-10-17T01:30:43.288Z,4.63
2022-10-17T01:34:00.035Z,5.00
2022-10-17T01:37:04.188Z,9.02
2022-10-17T01:40:21.096Z,6.70
2022-10-17T01:43:09.643Z,6.10
2022-10-17T01:45:58.021Z,11.82
2022-10-17T01:48:29.133Z,6.18
2022-10-17T01:51:21.523Z,7.95
2022-10-17T01:53:59.623Z,4.75
2022-10-17T01:56:32.109Z,7.22
2022-10-17T01:59:09.985Z,5.13
2022-10-17T02:01:38.321Z,6.22
2022-10-17T02:04:07.962Z,8.98
2022-10-17T02:06:36.685Z,3.97
2022-10-17T02:09:21.280Z,9.52
2022-10-17T02:14:54.344Z,5.22
2022-10-17T02:17:33.638Z,6.45
2022-10-17T02:20:24.806Z,8.40
2022-10-17T02:23:04.381Z,4.30
2022-10-17T02:25:46.625Z,5.82
2022-10-17T02:28:31.039Z,7.38
2022-10-17T02:33:35.930Z,5.63
2022-10-17T02:36:07.743Z,7.50
2022-10-17T02:38:35.075Z,6.70
2022-10-17T02:41:02.285Z,6.07
2022-10-17T02:43:29.390Z,6.38
2022-10-17T02:45:56.878Z,5.68
2022-10-17T02:48:43.001Z,6.03
2022-10-17T02:51:43.508Z,4.63
2022-10-17T02:54:18.012Z,8.95
2022-10-17T02:56:51.310Z,6.55
2022-10-17T02:59:21.295Z,6.18
2022-10-17T03:01:50.054Z,6.55
2022-10-17T03:04:16.922Z,8.48
2022-10-17T03:06:45.030Z,10.82
2022-10-17T03:09:12.462Z,9.20
2022-10-17T03:11:39.265Z,7.95
2022-10-17T03:14:06.212Z,5.55
2022-10-17T03:16:33.289Z,7.18
2022-10-17T03:19:00.103Z,8.63
2022-10-17T03:21:27.283Z,11.93
2022-10-17T03:23:54.167Z,10.02
2022-10-17T03:26:21.398Z,12.32
2022-10-17T03:28:51.917Z,8.77
2022-10-17T03:31:21.978Z,23.10
2022-10-17T03:33:49.188Z,13.15
2022-10-17T03:36:18.130Z,19.95
2022-10-17T03:38:45.452Z,14.50
2022-10-17T03:41:12.601Z,11.98
2022-10-17T03:43:40.443Z,11.88
2022-10-17T03:46:07.858Z,11.30
2022-10-17T03:48:34.771Z,10.80
2022-10-17T03:51:07.031Z,11.70
2022-10-17T03:53:34.615Z,7.72
2022-10-17T03:56:19.395Z,9.45
2022-10-17T03:58:46.310Z,9.60
2022-10-17T04:01:15.053Z,6.88
2022-10-17T04:03:42.750Z,7.75
2022-10-17T04:06:12.555Z,14.10
2022-10-17T04:08:39.978Z,10.43
2022-10-17T04:11:08.777Z,11.10
2022-10-17T04:13:36.211Z,8.98
2022-10-17T04:16:06.585Z,14.20
2022-10-17T04:18:33.681Z,12.27
2022-10-17T04:21:07.628Z,9.23
2022-10-17T04:23:35.193Z,10.18
2022-10-17T04:26:03.773Z,9.63
2022-10-17T04:28:31.139Z,10.75
2022-10-17T04:30:59.833Z,15.27
2022-10-17T04:33:26.544Z,13.20
2022-10-17T04:36:00.974Z,8.30
2022-10-17T04:41:04.038Z,10.60
2022-10-17T04:43:32.395Z,12.80
2022-10-17T04:45:59.792Z,12.65
2022-10-17T04:48:26.624Z,12.57
2022-10-17T04:51:01.318Z,15.68
2022-10-17T04:53:28.722Z,11.68
2022-10-17T04:55:55.576Z,12.50
2022-10-17T04:58:23.229Z,10.40
2022-10-17T05:00:50.164Z,12.30
2022-10-17T05:03:17.215Z,11.35
2022-10-17T05:05:44.205Z,9.20
2022-10-17T05:08:11.614Z,11.57
2022-10-17T05:10:42.371Z,8.23
2022-10-17T05:13:10.126Z,10.05
2022-10-17T05:15:38.251Z,8.68
2022-10-17T05:18:07.381Z,8.90
2022-10-17T05:20:35.811Z,9.07
2022-10-17T05:23:05.639Z,9.13
2022-10-17T05:25:37.088Z,9.82
2022-10-17T05:28:06.219Z,10.88
2022-10-17T05:30:36.805Z,9.52
2022-10-17T05:33:06.430Z,10.10
2022-10-17T05:35:36.804Z,12.05
2022-10-17T05:38:06.436Z,9.20
2022-10-17T05:40:36.408Z,14.10
2022-10-17T05:43:08.071Z,11.63
2022-10-17T05:45:39.874Z,13.60
2022-10-17T05:48:10.473Z,14.93
2022-10-17T05:50:38.793Z,13.95
2022-10-17T05:53:08.481Z,16.23
2022-10-17T05:55:39.517Z,14.25
2022-10-17T05:58:14.302Z,13.65
2022-10-17T06:00:57.798Z,16.25
2022-10-17T06:05:56.906Z,13.15
2022-10-17T06:08:26.205Z,15.05
2022-10-17T06:10:55.681Z,14.43
2022-10-17T06:13:24.038Z,13.77
2022-10-17T06:15:52.972Z,10.27
2022-10-17T06:18:19.856Z,14.77
2022-10-17T06:20:47.100Z,13.45
2022-10-17T06:23:15.560Z,15.07
2022-10-17T06:25:42.797Z,19.00
2022-10-17T06:28:12.068Z,13.77
2022-10-17T06:30:42.518Z,14.27
2022-10-17T06:33:09.993Z,13.93
2022-10-17T06:35:36.829Z,11.55
2022-10-17T06:38:05.570Z,10.25
2022-10-17T06:40:34.559Z,13.05
2022-10-17T06:43:01.878Z,11.30
2022-10-17T06:45:29.333Z,9.98
2022-10-17T06:47:56.976Z,13.90
2022-10-17T06:50:24.729Z,11.85
2022-10-17T06:52:58.065Z,11.65
2022-10-17T06:55:27.114Z,12.45
2022-10-17T06:57:57.580Z,12.45
2022-10-17T07:00:27.212Z,18.52
2022-10-17T07:02:56.672Z,15.60
2022-10-17T07:05:27.511Z,8.43
2022-10-17T07:07:57.228Z,13.88
2022-10-17T07:10:27.679Z,8.30
2022-10-17T07:12:58.295Z,12.10
2022-10-17T07:15:26.976Z,11.35
2022-10-17T07:17:54.829Z,11.15
2022-10-17T07:20:22.624Z,11.15
2022-10-17T07:22:49.747Z,14.48
2022-10-17T07:25:18.025Z,12.18
2022-10-17T07:27:46.700Z,10.55
2022-10-17T07:30:16.425Z,8.20
2022-10-17T07:32:45.909Z,10.30
2022-10-17T07:35:14.429Z,12.48
2022-10-17T07:37:41.304Z,12.20
2022-10-17T07:40:09.934Z,12.15
2022-10-17T07:45:07.462Z,13.88
2022-10-17T07:47:38.415Z,13.73
2022-10-17T07:50:06.737Z,32.38
2022-10-17T07:52:36.028Z,29.67
2022-10-17T07:55:02.909Z,21.95
2022-10-17T07:57:30.305Z,13.70
2022-10-17T07:59:59.707Z,12.30
2022-10-17T08:02:28.935Z,10.70
2022-10-17T08:07:31.291Z,14.32
2022-10-17T08:10:00.786Z,13.18
2022-10-17T08:12:32.700Z,12.98
2022-10-17T08:15:03.443Z,13.25
2022-10-17T08:17:30.699Z,10.77
2022-10-17T08:20:00.849Z,7.95
2022-10-17T08:22:30.046Z,7.25
2022-10-17T08:25:00.352Z,6.93
2022-10-17T08:27:29.581Z,9.05
2022-10-17T08:29:57.375Z,6.57
2022-10-17T08:32:27.934Z,6.32
2022-10-17T08:34:56.439Z,7.18
2022-10-17T08:37:23.856Z,5.68
2022-10-17T08:39:51.567Z,5.25
2022-10-17T08:43:00.786Z,6.63
2022-10-17T08:45:52.906Z,4.70
2022-10-17T08:48:25.825Z,7.05
2022-10-17T08:51:03.305Z,7.15
2022-10-17T08:53:36.182Z,4.72
2022-10-17T08:56:48.539Z,4.85
2022-10-17T08:59:24.206Z,3.72
2022-10-17T09:02:04.968Z,5.82
2022-10-17T09:05:16.390Z,10.77
2022-10-17T09:08:02.848Z,5.20
2022-10-17T09:10:52.177Z,7.68
2022-10-17T09:13:58.155Z,4.75
2022-10-17T09:16:39.684Z,7.30
2022-10-17T09:19:31.915Z,5.90
2022-10-17T09:22:13.003Z,5.55
2022-10-17T09:24:46.013Z,8.48
2022-10-17T09:27:24.782Z,7.80
2022-10-17T09:29:55.978Z,7.90
2022-10-17T09:32:27.149Z,4.95
2022-10-17T09:34:56.290Z,7.55
2022-10-17T09:37:30.922Z,8.10
2022-10-17T09:39:59.507Z,6.05
2022-10-17T09:42:29.187Z,6.07
2022-10-17T09:45:06.648Z,5.55
2022-10-17T09:50:29.567Z,5.88
2022-10-17T09:53:08.814Z,4.63
2022-10-17T09:55:46.893Z,3.28
2022-10-17T09:58:17.048Z,8.48
2022-10-17T10:00:48.592Z,3.17
2022-10-17T10:03:24.070Z,7.70
2022-10-17T10:06:06.371Z,6.25
2022-10-17T10:08:59.743Z,9.38
2022-10-17T10:11:55.094Z,2.95
2022-10-17T10:14:37.150Z,4.18
2022-10-17T10:17:07.805Z,5.85
2022-10-17T10:19:38.502Z,11.85
2022-10-17T10:22:16.906Z,5.32
2022-10-17T10:24:45.115Z,7.97
2022-10-17T10:27:19.208Z,6.95
2022-10-17T10:29:54.052Z,7.75
2022-10-17T10:32:28.128Z,9.65
2022-10-17T10:35:09.586Z,7.93
2022-10-17T10:37:44.022Z,7.60
2022-10-17T10:40:23.105Z,5.07
2022-10-17T10:42:54.908Z,4.68
2022-10-17T10:45:46.970Z,5.57
2022-10-17T10:48:30.261Z,2.85
2022-10-17T10:51:06.581Z,3.08
2022-10-17T10:53:49.196Z,8.35
2022-10-17T10:56:24.595Z,4.90
2022-10-17T10:59:03.045Z,4.80
2022-10-17T11:01:50.339Z,5.28
2022-10-17T11:04:48.694Z,5.32
2022-10-17T11:07:26.452Z,2.90
2022-10-17T11:10:18.445Z,7.53
2022-10-17T11:13:05.798Z,18.08
2022-10-17T11:15:46.482Z,5.20
2022-10-17T11:18:36.719Z,3.28
2022-10-17T11:21:30.679Z,6.50
2022-10-17T11:24:28.230Z,6.20
2022-10-17T11:27:15.412Z,2.75
2022-10-17T11:29:49.681Z,1.92
2022-10-17T11:32:27.719Z,9.10
2022-10-17T11:35:20.624Z,3.42
2022-10-17T11:38:18.836Z,3.97
2022-10-17T11:40:51.036Z,2.25
2022-10-17T11:43:30.056Z,7.20
2022-10-17T11:46:04.127Z,2.13
2022-10-17T11:48:37.148Z,5.87
2022-10-17T11:54:09.844Z,3.42
2022-10-17T11:57:24.417Z,4.75
2022-10-17T12:00:35.811Z,5.57
2022-10-17T12:03:15.979Z,4.00
2022-10-17T12:05:51.854Z,4.35
2022-10-17T12:08:57.311Z,5.88
2022-10-17T12:11:39.349Z,4.82
2022-10-17T12:14:39.800Z,5.88
2022-10-17T12:17:30.009Z,4.93
2022-10-17T12:20:25.328Z,5.60
2022-10-17T12:23:14.331Z,8.77
2022-10-17T12:26:01.564Z,5.70
2022-10-17T12:28:50.892Z,8.80
2022-10-17T12:31:34.035Z,3.65
2022-10-17T12:34:04.326Z,5.33
2022-10-17T12:36:34.194Z,3.90
2022-10-17T12:39:47.579Z,5.32
2022-10-17T12:42:35.731Z,6.20
2022-10-17T12:45:18.248Z,8.27
2022-10-17T12:47:50.627Z,3.90
2022-10-17T12:50:56.532Z,4.43
2022-10-17T12:53:38.825Z,9.63
2022-10-17T12:56:10.060Z,8.43
2022-10-17T12:58:41.128Z,7.32
2022-10-17T13:01:24.101Z,4.60
2022-10-17T13:03:57.243Z,6.50
2022-10-17T13:06:28.027Z,4.82
2022-10-17T13:09:03.470Z,5.22
2022-10-17T13:11:35.410Z,4.10
2022-10-17T13:14:14.684Z,5.90
2022-10-17T13:16:55.949Z,2.78
2022-10-17T13:19:30.804Z,7.10
2022-10-17T13:22:06.946Z,4.40
2022-10-17T13:24:43.535Z,5.07
2022-10-17T13:27:33.882Z,9.90
2022-10-17T13:30:22.118Z,3.70
2022-10-17T13:32:48.973Z,4.28
2022-10-17T13:35:41.951Z,7.25
2022-10-17T13:38:14.723Z,4.32
2022-10-17T13:40:49.915Z,6.32
2022-10-17T13:43:21.187Z,6.05
2022-10-17T13:46:19.339Z,5.32
2022-10-17T13:48:52.809Z,4.30
2022-10-17T13:51:23.502Z,5.97
2022-10-17T13:53:53.454Z,5.22
2022-10-17T13:56:28.979Z,4.43
2022-10-17T13:59:06.485Z,5.35
2022-10-17T14:01:34.842Z,3.35
2022-10-17T14:04:19.494Z,3.42
2022-10-17T14:06:52.128Z,5.35
2022-10-17T14:09:29.181Z,5.75
2022-10-17T14:12:10.658Z,3.78
2022-10-17T14:15:08.724Z,4.00
2022-10-17T14:17:32.452Z,5.97
2022-10-17T14:20:40.414Z,2.58
2022-10-17T14:23:20.871Z,7.55
2022-10-17T14:25:47.494Z,3.90
2022-10-17T14:28:19.401Z,5.13
2022-10-17T14:30:56.842Z,3.35
2022-10-17T14:33:32.084Z,2.35
2022-10-17T14:36:03.734Z,5.20
2022-10-17T14:38:34.168Z,6.13
2022-10-17T14:41:41.795Z,4.15
2022-10-17T14:44:21.085Z,4.82
2022-10-17T14:46:54.565Z,5.40
2022-10-17T14:49:29.110Z,3.42
2022-10-17T14:52:20.059Z,7.40
2022-10-17T14:54:52.760Z,5.03
2022-10-17T14:57:30.579Z,4.53
2022-10-17T15:00:00.115Z,4.85
2022-10-17T15:02:30.492Z,4.38
2022-10-17T15:05:01.833Z,9.32
2022-10-17T15:07:29.787Z,6.15
2022-10-17T15:10:01.711Z,6.95
2022-10-17T15:12:33.125Z,7.30
2022-10-17T15:15:00.478Z,5.63
2022-10-17T15:17:30.992Z,4.80
2022-10-17T15:20:05.192Z,4.47
2022-10-17T15:22:32.761Z,3.90
2022-10-17T15:25:04.048Z,5.30
2022-10-17T15:27:33.689Z,5.88
2022-10-17T15:30:04.436Z,2.45
2022-10-17T15:32:33.940Z,7.65
2022-10-17T15:35:04.457Z,6.13
2022-10-17T15:37:38.110Z,3.85
2022-10-17T15:40:16.608Z,8.32
2022-10-17T15:42:45.668Z,2.92
2022-10-17T15:45:16.433Z,11.38
2022-10-17T15:47:55.386Z,6.30
2022-10-17T15:50:26.569Z,4.40
2022-10-17T15:52:57.561Z,7.13
2022-10-17T15:55:30.597Z,3.83
2022-10-17T15:58:00.557Z,9.20
2022-10-17T16:00:30.767Z,4.07
2022-10-17T16:03:01.390Z,5.00
2022-10-17T16:05:31.003Z,7.15
2022-10-17T16:08:00.958Z,3.85
2022-10-17T16:10:32.519Z,6.22
2022-10-17T16:13:02.295Z,8.85
2022-10-17T16:15:32.050Z,3.95
2022-10-17T16:18:05.847Z,13.68
2022-10-17T16:20:36.340Z,10.48
2022-10-17T16:23:05.724Z,10.27
2022-10-17T16:25:34.405Z,8.55
2022-10-17T16:28:05.417Z,9.27
2022-10-17T16:30:34.629Z,8.15
2022-10-17T16:33:05.654Z,6.57
2022-10-17T16:35:38.205Z,9.68
2022-10-17T16:38:11.100Z,10.25
2022-10-17T16:40:42.676Z,9.60
2022-10-17T16:43:15.250Z,7.13
2022-10-17T16:45:47.007Z,16.73
2022-10-17T16:48:14.166Z,15.68
2022-10-17T16:50:46.808Z,17.13
2022-10-17T16:53:19.395Z,15.07
2022-10-17T16:56:02.316Z,12.38
2022-10-17T16:58:33.664Z,8.35
2022-10-17T17:01:07.178Z,6.78
2022-10-17T17:03:39.284Z,9.17
2022-10-17T17:06:10.875Z,7.30
2022-10-17T17:08:40.873Z,6.85
2022-10-17T17:11:09.411Z,8.68
2022-10-17T17:13:37.575Z,11.20
2022-10-17T17:16:15.419Z,11.35
2022-10-17T17:18:49.953Z,8.98
2022-10-17T17:21:25.596Z,16.70
2022-10-17T17:24:00.843Z,20.70
2022-10-17T17:26:32.463Z,13.77
2022-10-17T17:29:03.784Z,12.00
2022-10-17T17:31:34.807Z,11.50
2022-10-17T17:34:04.308Z,13.32
2022-10-17T17:36:36.166Z,8.88
2022-10-17T17:39:13.266Z,10.57
2022-10-17T17:41:45.697Z,19.20
2022-10-17T17:44:16.674Z,14.80
2022-10-17T17:46:49.268Z,14.35
2022-10-17T17:49:17.468Z,15.77
2022-10-17T17:51:51.159Z,13.10
2022-10-17T17:54:19.285Z,11.95
2022-10-17T17:56:49.507Z,14.63
2022-10-17T17:59:23.141Z,12.93
2022-10-17T18:01:54.901Z,12.80
2022-10-17T18:04:25.418Z,10.57
2022-10-17T18:06:53.914Z,11.20
2022-10-17T18:09:27.153Z,10.68
2022-10-17T18:11:59.379Z,11.15
2022-10-17T18:14:31.162Z,12.95
2022-10-17T18:17:03.589Z,13.57
2022-10-17T18:19:34.601Z,12.55
2022-10-17T18:22:06.623Z,14.70
2022-10-17T18:24:38.078Z,17.50
2022-10-17T18:27:08.985Z,16.30
2022-10-17T18:29:38.199Z,17.52
2022-10-17T18:32:05.377Z,19.63
2022-10-17T18:34:36.388Z,17.00
2022-10-17T18:37:10.345Z,20.02
2022-10-17T18:39:38.535Z,22.30
2022-10-17T18:42:11.048Z,16.90
2022-10-17T18:44:47.955Z,20.50
2022-10-17T18:47:20.204Z,22.63
2022-10-17T18:49:52.965Z,19.55
2022-10-17T18:54:54.281Z,16.50
2022-10-17T18:57:26.041Z,21.60
2022-10-17T18:59:56.725Z,20.23
2022-10-17T19:02:25.616Z,19.77
2022-10-17T19:04:56.691Z,18.70
2022-10-17T19:07:24.406Z,15.95
2022-10-17T19:09:55.622Z,14.68
2022-10-17T19:12:26.396Z,16.92
2022-10-17T19:14:56.843Z,14.10
2022-10-17T19:17:26.309Z,16.67
2022-10-17T19:19:57.039Z,11.45
2022-10-17T19:22:25.461Z,14.75
2022-10-17T19:24:56.054Z,10.85
2022-10-17T19:27:28.675Z,14.25
2022-10-17T19:29:57.863Z,16.92
2022-10-17T19:32:28.318Z,13.75
2022-10-17T19:35:00.360Z,11.95
2022-10-17T19:37:33.228Z,17.42
2022-10-17T19:40:07.022Z,11.57
2022-10-17T19:42:39.112Z,13.27
2022-10-17T19:45:08.307Z,13.07
2022-10-17T19:47:43.038Z,13.15
2022-10-17T19:50:11.825Z,13.55
2022-10-17T19:52:40.115Z,14.73
2022-10-17T19:55:11.259Z,12.77
2022-10-17T19:57:42.963Z,11.25
2022-10-17T20:00:13.870Z,14.63
2022-10-17T20:02:42.026Z,8.90
2022-10-17T20:05:19.016Z,12.05
2022-10-17T20:07:49.827Z,14.52
2022-10-17T20:10:20.995Z,13.85
2022-10-17T20:12:52.182Z,16.83
2022-10-17T20:15:22.575Z,12.68
2022-10-17T20:17:54.381Z,12.32
2022-10-17T20:20:24.230Z,14.48
2022-10-17T20:22:51.886Z,8.57
2022-10-17T20:25:22.931Z,10.85
2022-10-17T20:27:53.093Z,8.05
2022-10-17T20:30:23.730Z,14.30
2022-10-17T20:32:55.709Z,11.07
2022-10-17T20:35:29.554Z,15.07
2022-10-17T20:37:57.509Z,9.50
2022-10-17T20:40:34.988Z,13.73
2022-10-17T20:43:11.565Z,12.32
2022-10-17T20:45:51.138Z,11.05
2022-10-17T20:48:24.750Z,12.35
2022-10-17T20:50:57.792Z,11.02
2022-10-17T20:53:36.934Z,8.32
2022-10-17T20:56:12.473Z,11.50
2022-10-17T21:01:15.329Z,13.18
2022-10-17T21:03:48.609Z,10.50
2022-10-17T21:06:21.387Z,7.38
2022-10-17T21:08:54.655Z,8.77
2022-10-17T21:11:26.402Z,15.85
2022-10-17T21:14:05.993Z,10.93
2022-10-17T21:16:40.679Z,11.77
2022-10-17T21:19:10.662Z,9.40
2022-10-17T21:21:44.263Z,13.23
2022-10-17T21:24:14.700Z,13.48
2022-10-17T21:26:43.371Z,9.68
2022-10-17T21:29:13.341Z,10.60
2022-10-17T21:31:43.283Z,9.43
2022-10-17T21:34:14.934Z,8.43
2022-10-17T21:36:42.701Z,8.77
2022-10-17T21:39:13.686Z,8.18
2022-10-17T21:41:45.543Z,7.72
2022-10-17T21:44:15.589Z,7.72
2022-10-17T21:46:44.129Z,10.32
2022-10-17T21:49:14.107Z,10.55
2022-10-17T21:51:42.687Z,9.50
2022-10-17T21:54:11.884Z,11.70
2022-10-17T21:56:42.558Z,9.57
2022-10-17T21:59:15.215Z,10.10
2022-10-17T22:01:45.810Z,11.10
2022-10-17T22:04:18.039Z,11.32
2022-10-17T22:06:51.460Z,9.93
2022-10-17T22:09:26.913Z,8.45
2022-10-17T22:11:56.069Z,10.43
2022-10-17T22:14:25.620Z,9.80
2022-10-17T22:16:54.925Z,13.35
2022-10-17T22:19:29.031Z,11.60
2022-10-17T22:21:56.812Z,13.60
2022-10-17T22:24:27.051Z,13.52
2022-10-17T22:26:57.237Z,9.95
2022-10-17T22:29:27.711Z,12.50
2022-10-17T22:31:56.744Z,11.02
2022-10-17T22:34:27.390Z,10.75
2022-10-17T22:36:58.188Z,8.05
2022-10-17T22:39:28.141Z,11.52
2022-10-17T22:41:57.270Z,10.57
2022-10-17T22:44:29.149Z,11.65
2022-10-17T22:46:58.469Z,10.35
2022-10-17T22:49:27.326Z,10.82
2022-10-17T22:51:57.487Z,12.90
2022-10-17T22:54:25.162Z,9.52
2022-10-17T22:56:55.595Z,11.93
2022-10-17T22:59:25.377Z,9.52
2022-10-17T23:01:55.491Z,9.02
2022-10-17T23:04:27.551Z,11.75
2022-10-17T23:06:57.522Z,13.20
2022-10-17T23:09:29.493Z,12.25
2022-10-17T23:12:02.274Z,12.97
2022-10-17T23:14:33.209Z,9.60
2022-10-17T23:17:01.439Z,14.93
2022-10-17T23:19:33.389Z,13.32
2022-10-17T23:22:04.047Z,13.25
2022-10-17T23:24:31.701Z,12.30
2022-10-17T23:27:01.671Z,11.32
2022-10-17T23:29:33.550Z,11.38
2022-10-17T23:32:03.498Z,14.07
2022-10-17T23:34:33.887Z,10.88
2022-10-17T23:37:03.944Z,12.45
2022-10-17T23:39:35.487Z,18.02
2022-10-17T23:42:06.081Z,8.38
2022-10-17T23:44:36.561Z,17.83
2022-10-17T23:47:08.108Z,10.90
2022-10-17T23:49:41.743Z,16.27
2022-10-17T23:52:12.466Z,11.02
2022-10-17T23:57:13.917Z,12.77
2022-10-17T23:59:44.879Z,11.45
